Time;durP1;ratioP1;P1;durP2;ratioP2;P2;SDS_P1;SDS_P2;PMS_P1;PMS_P2;Temp;Humidity;BMP_temperature;BMP_pressure;BME280_temperature;BME280_humidity;BME280_pressure;Samples;Min_cycle;Max_cycle;Signal;HPM_P1;HPM_P2
2023/04/04 00:04:22;;;;;;;5.38;3.20;;;;;;;0.00;100.00;59042.03;10285498;28;20022;-70
2023/04/04 00:09:23;;;;;;;5.55;2.67;;;;;;;0.00;100.00;59042.03;10302581;28;20481;-69
2023/04/04 00:14:23;;;;;;;5.10;3.05;;;;;;;0.00;100.00;59042.03;10301912;28;20061;-70
2023/04/04 00:19:24;;;;;;;3.03;2.58;;;;;;;0.00;100.00;59042.03;10302035;28;20046;-70
2023/04/04 00:24:25;;;;;;;4.75;3.15;;;;;;;0.00;100.00;59042.03;10300172;28;20034;-70
2023/04/04 00:29:25;;;;;;;3.90;2.75;;;;;;;0.00;100.00;59042.03;10299774;28;20038;-70
2023/04/04 00:34:26;;;;;;;4.57;3.30;;;;;;;0.00;100.00;59042.03;10297834;28;20057;-70
2023/04/04 00:39:27;;;;;;;4.50;2.97;;;;;;;0.00;100.00;59042.03;10297700;28;20032;-70
2023/04/04 00:44:29;;;;;;;4.80;3.63;;;;;;;0.00;100.00;59042.03;10281243;28;20277;-70
2023/04/04 00:49:29;;;;;;;6.25;4.43;;;;;;;0.00;100.00;59042.03;10299996;28;20421;-69
2023/04/04 00:54:30;;;;;;;7.78;4.50;;;;;;;0.00;100.00;59042.03;10299836;28;20042;-70
2023/04/04 00:59:33;;;;;;;7.50;5.32;;;;;;;0.00;100.00;59042.03;10298635;28;20041;-70
2023/04/04 01:04:34;;;;;;;6.60;4.70;;;;;;;0.00;100.00;59042.03;10299310;28;20022;-70
2023/04/04 01:09:35;;;;;;;7.63;4.97;;;;;;;0.00;100.00;59042.03;10298932;28;20129;-70
2023/04/04 01:14:36;;;;;;;7.05;5.03;;;;;;;0.00;100.00;59042.03;10300378;28;20038;-70
2023/04/04 01:19:52;;;;;;;11.00;5.18;;;;;;;0.00;100.00;59042.03;10300664;28;20045;-69
2023/04/04 01:24:55;;;;;;;7.82;5.15;;;;;;;0.00;100.00;59042.03;10290381;28;20411;-70
2023/04/04 01:29:55;;;;;;;9.05;5.63;;;;;;;0.00;100.00;59042.03;10299244;28;20502;-68
2023/04/04 01:35:19;;;;;;;9.82;5.07;;;;;;;0.00;100.00;59042.03;10299347;28;20104;-71
2023/04/04 01:40:23;;;;;;;7.65;4.13;;;;;;;0.00;100.00;59042.03;10282174;28;20041;-69
2023/04/04 01:45:24;;;;;;;5.28;4.03;;;;;;;0.00;100.00;59042.03;10299444;28;20053;-70
2023/04/04 01:50:26;;;;;;;4.50;3.47;;;;;;;0.00;100.00;59042.03;10299468;28;20033;-70
2023/04/04 01:55:26;;;;;;;5.30;3.10;;;;;;;0.00;100.00;59042.03;10279986;28;20121;-70
2023/04/04 02:00:27;;;;;;;3.17;2.15;;;;;;;0.00;100.00;59042.03;10298797;28;20385;-71
2023/04/04 02:05:27;;;;;;;1.98;1.60;;;;;;;0.00;100.00;59042.03;10281517;28;20026;-70
2023/04/04 02:10:29;;;;;;;4.47;2.07;;;;;;;0.00;100.00;59042.03;10296742;28;20066;-70
2023/04/04 02:15:29;;;;;;;2.53;1.95;;;;;;;0.00;100.00;59042.03;10296629;28;20301;-70
2023/04/04 02:20:30;;;;;;;1.85;1.40;;;;;;;0.00;100.00;59042.03;10298026;28;20034;-70
2023/04/04 02:25:30;;;;;;;4.22;1.20;;;;;;;0.00;100.00;59042.03;10298216;28;20449;-71
2023/04/04 02:30:31;;;;;;;2.30;1.10;;;;;;;0.00;100.00;59042.03;10298329;28;20032;-71
2023/04/04 02:35:31;;;;;;;1.63;0.95;;;;;;;0.00;100.00;59042.03;10297688;28;20030;-71
2023/04/04 02:40:32;;;;;;;1.48;1.00;;;;;;;0.00;100.00;59042.03;10298021;28;20057;-71
2023/04/04 02:45:32;;;;;;;2.08;0.95;;;;;;;0.00;100.00;59042.03;10280641;28;20113;-70
2023/04/04 02:50:33;;;;;;;1.42;0.73;;;;;;;0.00;100.00;59042.03;10290029;28;20038;-69
2023/04/04 02:55:33;;;;;;;1.88;0.50;;;;;;;0.00;100.00;59042.03;10297449;28;20081;-69
2023/04/04 03:00:34;;;;;;;0.80;0.47;;;;;;;0.00;100.00;59042.03;10298030;28;20038;-69
2023/04/04 03:05:34;;;;;;;0.68;0.50;;;;;;;0.00;100.00;59042.03;10297586;28;20284;-69
2023/04/04 03:10:35;;;;;;;0.50;0.50;;;;;;;0.00;100.00;59042.03;10256153;28;20058;-69
2023/04/04 03:15:35;;;;;;;1.58;0.70;;;;;;;0.00;100.00;59042.03;10257192;28;20470;-71
2023/04/04 03:20:36;;;;;;;1.10;0.70;;;;;;;0.00;100.00;59042.03;10256580;28;20144;-69
2023/04/04 03:25:36;;;;;;;1.48;0.88;;;;;;;0.00;100.00;59042.03;10257888;28;20033;-68
2023/04/04 03:30:37;;;;;;;1.85;1.30;;;;;;;0.00;100.00;59042.03;10263407;28;20485;-70
2023/04/04 03:35:38;;;;;;;3.60;1.58;;;;;;;0.00;100.00;59042.03;10264070;28;20403;-69
2023/04/04 03:40:40;;;;;;;3.33;1.30;;;;;;;0.00;100.00;59042.03;10261968;28;20478;-70
2023/04/04 03:45:41;;;;;;;2.63;1.60;;;;;;;0.00;100.00;59042.03;10263399;28;20421;-70
2023/04/04 03:50:41;;;;;;;2.95;1.95;;;;;;;0.00;100.00;59042.03;10262727;28;20057;-69
2023/04/04 03:55:42;;;;;;;4.20;2.53;;;;;;;0.00;100.00;59042.03;10262824;28;20031;-69
2023/04/04 04:00:43;;;;;;;6.30;3.53;;;;;;;0.00;100.00;59042.03;10260908;28;20118;-70
2023/04/04 04:05:43;;;;;;;4.35;2.70;;;;;;;0.00;100.00;59042.03;10258670;28;20038;-71
2023/04/04 04:10:44;;;;;;;5.47;3.28;;;;;;;0.00;100.00;59042.03;10282456;28;20490;-70
2023/04/04 04:15:44;;;;;;;6.73;3.13;;;;;;;0.00;100.00;59042.03;10299004;28;20041;-70
2023/04/04 04:20:45;;;;;;;4.10;2.90;;;;;;;0.00;100.00;59042.03;10299733;28;20300;-70
2023/04/04 04:25:47;;;;;;;8.77;2.83;;;;;;;0.00;100.00;59042.03;10299351;28;20030;-70
2023/04/04 04:30:47;;;;;;;5.53;3.42;;;;;;;0.00;100.00;59042.03;10298852;28;20030;-71
2023/04/04 04:35:48;;;;;;;5.65;3.05;;;;;;;0.00;100.00;59042.03;10298570;28;20047;-71
2023/04/04 04:40:48;;;;;;;6.07;3.67;;;;;;;0.00;100.00;59042.03;10299175;28;20057;-70
2023/04/04 04:45:51;;;;;;;5.70;3.35;;;;;;;0.00;100.00;59042.03;10300074;28;20034;-71
2023/04/04 04:50:52;;;;;;;8.25;4.05;;;;;;;0.00;100.00;59042.03;10281884;28;20038;-71
2023/04/04 04:55:52;;;;;;;12.80;5.85;;;;;;;0.00;100.00;59042.03;10294547;28;20030;-70
2023/04/04 05:00:58;;;;;;;9.70;5.05;;;;;;;0.00;100.00;59042.03;10300289;28;20038;-70
2023/04/04 05:05:59;;;;;;;14.27;4.75;;;;;;;0.00;100.00;59042.03;10298376;28;20410;-70
2023/04/04 05:10:59;;;;;;;9.15;4.20;;;;;;;0.00;100.00;59042.03;10296600;28;20060;-71
2023/04/04 05:16:00;;;;;;;7.25;3.85;;;;;;;0.00;100.00;59042.03;10296645;28;20035;-71
2023/04/04 05:21:00;;;;;;;9.73;4.63;;;;;;;0.00;100.00;59042.03;10296413;28;20029;-70
2023/04/04 05:26:01;;;;;;;6.33;3.70;;;;;;;0.00;100.00;59042.03;10299395;28;20050;-70
2023/04/04 05:31:02;;;;;;;10.10;4.65;;;;;;;0.00;100.00;59042.03;10298373;28;20157;-70
2023/04/04 05:36:03;;;;;;;10.95;6.10;;;;;;;0.00;100.00;59042.03;10299090;28;20065;-72
2023/04/04 05:41:03;;;;;;;9.65;5.57;;;;;;;0.00;100.00;59042.03;10299173;28;20065;-70
2023/04/04 05:46:04;;;;;;;10.50;6.38;;;;;;;0.00;100.00;59042.03;10295494;28;20080;-71
2023/04/04 05:51:04;;;;;;;9.38;5.70;;;;;;;0.00;100.00;59042.03;10295573;28;20656;-71
2023/04/04 05:56:05;;;;;;;11.50;6.47;;;;;;;0.00;100.00;59042.03;10296349;28;20022;-71
2023/04/04 06:01:09;;;;;;;10.98;5.95;;;;;;;0.00;100.00;59042.03;10298202;28;20465;-71
2023/04/04 06:06:10;;;;;;;14.70;7.28;;;;;;;0.00;100.00;59042.03;10297398;28;20025;-71
2023/04/04 06:11:10;;;;;;;13.20;7.75;;;;;;;0.00;100.00;59042.03;10297940;28;20049;-70
2023/04/04 06:16:10;;;;;;;13.60;7.40;;;;;;;0.00;100.00;59042.03;10293085;28;20039;-72
2023/04/04 06:21:12;;;;;;;15.90;8.70;;;;;;;0.00;100.00;59042.03;10280401;28;20032;-71
2023/04/04 06:26:13;;;;;;;20.80;9.80;;;;;;;0.00;100.00;59042.03;10280617;28;20014;-72
2023/04/04 06:31:14;;;;;;;20.02;9.85;;;;;;;0.00;100.00;59042.03;10281228;28;20034;-71
2023/04/04 06:36:14;;;;;;;23.65;11.90;;;;;;;0.00;100.00;59042.03;10297414;28;20029;-70
2023/04/04 06:41:15;;;;;;;18.85;11.73;;;;;;;0.00;100.00;59042.03;10297156;28;20037;-71
2023/04/04 06:46:16;;;;;;;20.77;11.65;;;;;;;0.00;100.00;59042.03;10297297;28;20030;-70
2023/04/04 06:51:16;;;;;;;15.70;8.45;;;;;;;0.00;100.00;59042.03;10297214;28;20759;-71
2023/04/04 06:56:17;;;;;;;13.18;7.68;;;;;;;0.00;100.00;59042.03;10297270;28;20038;-70
2023/04/04 07:01:17;;;;;;;5.07;2.90;;;;;;;0.00;100.00;59042.03;10296882;28;20092;-71
2023/04/04 07:06:19;;;;;;;2.30;1.35;;;;;;;0.00;100.00;59042.03;10305049;28;20054;-71
2023/04/04 07:11:22;;;;;;;4.20;1.20;;;;;;;0.00;100.00;59042.03;10285718;28;20050;-70
2023/04/04 07:16:22;;;;;;;1.92;1.10;;;;;;;0.00;100.00;59042.03;10285748;28;20035;-73
2023/04/04 07:21:23;;;;;;;1.03;0.73;;;;;;;0.00;100.00;59042.03;10304718;28;20466;-72
2023/04/04 07:26:24;;;;;;;0.70;0.52;;;;;;;0.00;100.00;59042.03;10301497;28;20277;-72
2023/04/04 07:31:24;;;;;;;1.00;0.90;;;;;;;0.00;100.00;59042.03;10300136;28;20400;-71
2023/04/04 07:36:25;;;;;;;3.67;1.48;;;;;;;0.00;100.00;59042.03;10302640;28;20760;-70
2023/04/04 07:41:26;;;;;;;1.67;1.10;;;;;;;0.00;100.00;59042.03;10304249;28;20105;-73
2023/04/04 07:46:26;;;;;;;2.20;1.38;;;;;;;0.00;100.00;59042.03;10302438;28;20081;-70
2023/04/04 07:51:28;;;;;;;1.10;0.70;;;;;;;0.00;100.00;59042.03;10303196;28;20481;-71
2023/04/04 07:56:29;;;;;;;2.08;1.23;;;;;;;0.00;100.00;59042.03;10296359;28;20113;-71
2023/04/04 08:01:29;;;;;;;3.55;1.65;;;;;;;0.00;100.00;59042.03;10300996;28;20462;-70
2023/04/04 08:06:30;;;;;;;0.90;0.80;;;;;;;0.00;100.00;59042.03;10301339;28;20077;-71
2023/04/04 08:11:30;;;;;;;1.05;0.70;;;;;;;0.00;100.00;59042.03;10302022;28;20054;-71
2023/04/04 08:16:31;;;;;;;2.73;1.10;;;;;;;0.00;100.00;59042.03;10299505;28;20089;-70
2023/04/04 08:21:31;;;;;;;1.35;0.77;;;;;;;0.00;100.00;59042.03;10300424;28;20794;-71
2023/04/04 08:26:32;;;;;;;1.75;0.93;;;;;;;0.00;100.00;59042.03;10302056;28;20608;-70
2023/04/04 08:31:33;;;;;;;2.92;0.90;;;;;;;0.00;100.00;59042.03;10301746;28;20038;-71
2023/04/04 08:36:34;;;;;;;1.80;1.05;;;;;;;0.00;100.00;59042.03;10302144;28;20030;-71
2023/04/04 08:41:35;;;;;;;4.65;1.10;;;;;;;0.00;100.00;59042.03;10279824;28;20104;-70
2023/04/04 08:46:36;;;;;;;3.88;1.30;;;;;;;0.00;100.00;59042.03;10301714;28;20022;-71
2023/04/04 08:51:38;;;;;;;1.65;1.30;;;;;;;0.00;100.00;59042.03;10301380;28;20034;-71
2023/04/04 08:56:39;;;;;;;2.53;1.40;;;;;;;0.00;100.00;59042.03;10280692;28;20401;-70
2023/04/04 09:01:39;;;;;;;1.30;1.20;;;;;;;0.00;100.00;59042.03;10298386;28;20030;-71
2023/04/04 09:06:40;;;;;;;2.85;1.73;;;;;;;0.00;100.00;59042.03;10298034;28;20269;-71
2023/04/04 09:11:45;;;;;;;3.42;1.40;;;;;;;0.00;100.00;59042.03;10299198;28;20050;-71
2023/04/04 09:16:45;;;;;;;2.63;1.70;;;;;;;0.00;100.00;59042.03;10300448;28;20038;-71
2023/04/04 09:21:47;;;;;;;4.13;1.38;;;;;;;0.00;100.00;59042.03;10299710;28;20045;-70
2023/04/04 09:26:52;;;;;;;2.40;1.75;;;;;;;0.00;100.00;59042.03;10299379;28;20033;-70
2023/04/04 09:31:52;;;;;;;1.50;1.38;;;;;;;0.00;100.00;59042.03;10299504;28;20037;-70
2023/04/04 09:36:53;;;;;;;1.92;1.42;;;;;;;0.00;100.00;59042.03;10299600;28;20030;-70
2023/04/04 09:41:53;;;;;;;2.17;1.65;;;;;;;0.00;100.00;59042.03;10300011;28;20034;-70
2023/04/04 09:47:27;;;;;;;3.13;1.95;;;;;;;0.00;100.00;59042.03;10299816;28;20552;-70
2023/04/04 09:52:32;;;;;;;2.05;1.50;;;;;;;0.00;100.00;59042.03;10297455;28;20089;-70
2023/04/04 09:57:34;;;;;;;1.50;1.40;;;;;;;0.00;100.00;59042.03;10299050;28;20042;-70
2023/04/04 10:02:45;;;;;;;2.05;1.33;;;;;;;0.00;100.00;59042.03;10282022;28;20068;-70
2023/04/04 10:07:47;;;;;;;3.33;2.25;;;;;;;0.00;100.00;59042.03;10287989;28;20058;-72
2023/04/04 10:12:48;;;;;;;4.95;3.00;;;;;;;0.00;100.00;59042.03;10298574;28;20034;-71
2023/04/04 10:17:52;;;;;;;2.53;1.60;;;;;;;0.00;100.00;59042.03;10298123;28;20030;-71
2023/04/04 10:22:53;;;;;;;8.23;1.70;;;;;;;0.00;100.00;59042.03;10299000;28;20026;-69
2023/04/04 10:27:53;;;;;;;4.20;2.47;;;;;;;0.00;100.00;59042.03;10298721;28;20038;-70
2023/04/04 10:33:14;;;;;;;5.68;1.92;;;;;;;0.00;100.00;59042.03;10296083;28;20041;-71
2023/04/04 10:38:19;;;;;;;5.55;2.30;;;;;;;0.00;100.00;59042.03;10284615;28;20037;-70
2023/04/04 10:43:25;;;;;;;3.25;2.35;;;;;;;0.00;100.00;59042.03;10306432;28;20798;-71
2023/04/04 10:48:26;;;;;;;6.50;2.05;;;;;;;0.00;100.00;59042.03;10306523;28;20026;-71
2023/04/04 10:53:27;;;;;;;3.63;2.33;;;;;;;0.00;100.00;59042.03;10306613;28;20045;-70
2023/04/04 10:58:28;;;;;;;2.92;2.25;;;;;;;0.00;100.00;59042.03;10305848;28;20396;-71
2023/04/04 11:03:32;;;;;;;2.20;1.90;;;;;;;0.00;100.00;59042.03;10288065;28;20097;-70
2023/04/04 11:08:36;;;;;;;2.67;1.95;;;;;;;0.00;100.00;59042.03;10305400;28;20085;-71
2023/04/04 11:13:38;;;;;;;3.22;2.40;;;;;;;0.00;100.00;59042.03;10302029;28;20049;-70
2023/04/04 11:18:39;;;;;;;2.90;2.50;;;;;;;0.00;100.00;59042.03;10297152;28;20071;-69
2023/04/04 11:23:48;;;;;;;3.15;2.67;;;;;;;0.00;100.00;59042.03;10303985;28;20042;-71
2023/04/04 11:28:49;;;;;;;3.67;2.50;;;;;;;0.00;100.00;59042.03;10296928;28;20061;-70
2023/04/04 11:33:58;;;;;;;3.42;2.78;;;;;;;0.00;100.00;59042.03;10297479;28;20038;-70
2023/04/04 11:39:00;;;;;;;4.57;3.60;;;;;;;0.00;100.00;59042.03;10297011;28;20033;-70
2023/04/04 11:44:08;;;;;;;4.35;3.05;;;;;;;0.00;100.00;59042.03;10298429;28;20093;-71
2023/04/04 11:49:09;;;;;;;5.90;3.67;;;;;;;0.00;100.00;59042.03;10297835;28;20034;-71
2023/04/04 11:54:16;;;;;;;2.50;2.30;;;;;;;0.00;100.00;59042.03;10299441;28;20527;-70
2023/04/04 11:59:19;;;;;;;3.55;2.47;;;;;;;0.00;100.00;59042.03;10299111;28;20042;-72
2023/04/04 12:04:21;;;;;;;3.95;3.15;;;;;;;0.00;100.00;59042.03;10297278;28;20034;-72
2023/04/04 12:09:24;;;;;;;7.10;4.55;;;;;;;0.00;100.00;59042.03;10297407;28;20500;-72
2023/04/04 12:14:26;;;;;;;5.95;3.88;;;;;;;0.00;100.00;59042.03;10301340;28;20068;-71
2023/04/04 12:19:28;;;;;;;3.20;2.78;;;;;;;0.00;100.00;59042.03;10285591;28;20560;-71
2023/04/04 12:24:29;;;;;;;4.28;3.28;;;;;;;0.00;100.00;59042.03;10302393;28;20073;-70
2023/04/04 12:29:37;;;;;;;7.60;3.75;;;;;;;0.00;100.00;59042.03;10298093;28;20027;-70
2023/04/04 12:34:43;;;;;;;7.78;3.88;;;;;;;0.00;100.00;59042.03;10300109;28;20512;-71
2023/04/04 12:39:51;;;;;;;6.97;4.50;;;;;;;0.00;100.00;59042.03;10302342;28;20030;-70
2023/04/04 12:44:53;;;;;;;8.85;5.57;;;;;;;0.00;100.00;59042.03;10301302;28;20136;-70
2023/04/04 12:49:53;;;;;;;6.05;4.78;;;;;;;0.00;100.00;59042.03;10301732;28;20035;-70
2023/04/04 12:54:58;;;;;;;5.25;4.22;;;;;;;0.00;100.00;59042.03;10295743;28;20061;-69
2023/04/04 13:00:00;;;;;;;6.25;4.90;;;;;;;0.00;100.00;59042.03;10301634;28;20034;-70
2023/04/04 13:05:02;;;;;;;7.28;5.78;;;;;;;0.00;100.00;59042.03;10283703;28;20034;-70
2023/04/04 13:10:04;;;;;;;7.50;5.50;;;;;;;0.00;100.00;59042.03;10300981;28;20053;-71
2023/04/04 13:15:05;;;;;;;7.15;5.38;;;;;;;0.00;100.00;59042.03;10283347;28;20125;-71
2023/04/04 13:20:07;;;;;;;11.18;6.65;;;;;;;0.00;100.00;59042.03;10301206;28;20330;-72
2023/04/04 13:25:09;;;;;;;9.63;7.05;;;;;;;0.00;100.00;59042.03;10300408;28;20464;-71
2023/04/04 13:30:10;;;;;;;7.63;5.88;;;;;;;0.00;100.00;59042.03;10296369;28;20030;-70
2023/04/04 13:35:12;;;;;;;7.70;5.53;;;;;;;0.00;100.00;59042.03;10294109;28;20722;-69
2023/04/04 13:40:13;;;;;;;11.50;6.03;;;;;;;0.00;100.00;59042.03;10295505;28;20026;-71
2023/04/04 13:45:13;;;;;;;10.38;6.57;;;;;;;0.00;100.00;59042.03;10294996;28;20034;-71
2023/04/04 13:50:14;;;;;;;8.48;6.47;;;;;;;0.00;100.00;59042.03;10294543;28;20172;-70
2023/04/04 13:55:14;;;;;;;9.40;6.63;;;;;;;0.00;100.00;59042.03;10292802;28;20042;-70
2023/04/04 14:00:15;;;;;;;7.43;5.47;;;;;;;0.00;100.00;59042.03;10293475;28;20030;-70
2023/04/04 14:05:19;;;;;;;8.65;6.00;;;;;;;0.00;100.00;59042.03;10291478;28;20428;-71
2023/04/04 14:10:19;;;;;;;7.38;6.35;;;;;;;0.00;100.00;59042.03;10293614;28;20059;-72
2023/04/04 14:15:20;;;;;;;11.13;7.15;;;;;;;0.00;100.00;59042.03;10293499;28;20487;-70
2023/04/04 14:20:20;;;;;;;13.63;8.23;;;;;;;0.00;100.00;59042.03;10292862;28;20120;-69
2023/04/04 14:25:21;;;;;;;12.02;7.13;;;;;;;0.00;100.00;59042.03;10291164;28;20027;-69
2023/04/04 14:30:21;;;;;;;11.40;7.43;;;;;;;0.00;100.00;59042.03;10274243;28;20475;-69
2023/04/04 14:35:22;;;;;;;11.32;7.00;;;;;;;0.00;100.00;59042.03;10292755;28;20065;-71
2023/04/04 14:40:22;;;;;;;11.10;7.60;;;;;;;0.00;100.00;59042.03;10292123;28;20096;-71
2023/04/04 14:45:23;;;;;;;11.80;7.80;;;;;;;0.00;100.00;59042.03;10294286;28;20067;-72
2023/04/04 14:50:23;;;;;;;10.60;7.40;;;;;;;0.00;100.00;59042.03;10291688;28;20060;-71
2023/04/04 14:55:24;;;;;;;10.97;8.03;;;;;;;0.00;100.00;59042.03;10291141;28;20050;-71
2023/04/04 15:00:25;;;;;;;11.27;7.50;;;;;;;0.00;100.00;59042.03;10298438;28;20825;-71
2023/04/04 15:05:26;;;;;;;16.88;9.85;;;;;;;0.00;100.00;59042.03;10294180;28;20433;-71
2023/04/04 15:10:26;;;;;;;11.68;8.57;;;;;;;0.00;100.00;59042.03;10297763;28;20124;-71
2023/04/04 15:15:27;;;;;;;9.93;6.70;;;;;;;0.00;100.00;59042.03;10297734;28;20042;-71
2023/04/04 15:20:28;;;;;;;9.38;6.60;;;;;;;0.00;100.00;59042.03;10292757;28;20328;-72
2023/04/04 15:25:28;;;;;;;10.17;6.93;;;;;;;0.00;100.00;59042.03;10302463;28;20104;-70
2023/04/04 15:30:29;;;;;;;12.60;7.53;;;;;;;0.00;100.00;59042.03;10295996;28;20096;-72
2023/04/04 15:35:30;;;;;;;13.27;6.78;;;;;;;0.00;100.00;59042.03;10304367;28;20034;-71
2023/04/04 15:40:30;;;;;;;12.87;9.23;;;;;;;0.00;100.00;59042.03;10303640;28;20029;-71
2023/04/04 15:45:31;;;;;;;19.90;9.27;;;;;;;0.00;100.00;59042.03;10303980;28;20274;-71
2023/04/04 15:50:31;;;;;;;10.75;7.20;;;;;;;0.00;100.00;59042.03;10303774;28;20026;-71
2023/04/04 15:55:32;;;;;;;13.93;7.55;;;;;;;0.00;100.00;59042.03;10304238;28;20041;-72
2023/04/04 16:00:32;;;;;;;14.90;7.80;;;;;;;0.00;100.00;59042.03;10292646;28;20410;-72
2023/04/04 16:05:33;;;;;;;11.63;7.70;;;;;;;0.00;100.00;59042.03;10285971;28;20034;-71
2023/04/04 16:10:33;;;;;;;26.33;8.73;;;;;;;0.00;100.00;59042.03;10285324;28;20069;-71
2023/04/04 16:15:34;;;;;;;12.73;7.78;;;;;;;0.00;100.00;59042.03;10300528;28;20594;-70
2023/04/04 16:20:34;;;;;;;15.70;8.80;;;;;;;0.00;100.00;59042.03;10284906;28;20038;-71
2023/04/04 16:25:35;;;;;;;13.00;7.78;;;;;;;0.00;100.00;59042.03;10300325;28;20038;-73
2023/04/04 16:30:35;;;;;;;19.45;7.47;;;;;;;0.00;100.00;59042.03;10293680;28;20036;-71
2023/04/04 16:35:37;;;;;;;21.27;8.77;;;;;;;0.00;100.00;59042.03;10272965;28;20034;-71
2023/04/04 16:40:38;;;;;;;14.25;8.52;;;;;;;0.00;100.00;59042.03;10296235;28;20278;-72
2023/04/04 16:45:38;;;;;;;15.07;8.93;;;;;;;0.00;100.00;59042.03;10294612;28;20030;-72
2023/04/04 16:50:39;;;;;;;18.55;9.52;;;;;;;0.00;100.00;59042.03;10296235;28;20030;-73
2023/04/04 16:55:39;;;;;;;18.73;9.63;;;;;;;0.00;100.00;59042.03;10293648;28;20030;-73
2023/04/04 17:00:40;;;;;;;13.35;7.70;;;;;;;0.00;100.00;59042.03;10277575;28;20801;-73
2023/04/04 17:05:40;;;;;;;16.45;8.27;;;;;;;0.00;100.00;59042.03;10293638;28;20470;-74
2023/04/04 17:10:41;;;;;;;18.08;9.90;;;;;;;0.00;100.00;59042.03;10295377;28;20532;-70
2023/04/04 17:15:42;;;;;;;17.80;10.15;;;;;;;0.00;100.00;59042.03;10295127;28;20046;-73
2023/04/04 17:20:44;;;;;;;15.90;10.20;;;;;;;0.00;100.00;59042.03;10295005;28;20473;-70
2023/04/04 17:25:44;;;;;;;14.77;8.82;;;;;;;0.00;100.00;59042.03;10296369;28;20119;-70
2023/04/04 17:30:45;;;;;;;17.63;10.10;;;;;;;0.00;100.00;59042.03;10296320;28;20042;-70
2023/04/04 17:35:47;;;;;;;13.65;8.18;;;;;;;0.00;100.00;59042.03;10292360;28;20405;-71
2023/04/04 17:40:51;;;;;;;16.70;10.73;;;;;;;0.00;100.00;59042.03;10288751;28;20050;-77
2023/04/04 17:45:52;;;;;;;17.25;10.18;;;;;;;0.00;100.00;59042.03;10285569;28;20031;-70
2023/04/04 17:50:52;;;;;;;16.88;9.45;;;;;;;0.00;100.00;59042.03;10282162;28;20037;-70
2023/04/04 17:55:53;;;;;;;20.92;10.98;;;;;;;0.00;100.00;59042.03;10265669;28;20031;-70
2023/04/04 18:00:56;;;;;;;21.05;11.88;;;;;;;0.00;100.00;59042.03;10280863;28;20030;-71
2023/04/04 18:05:56;;;;;;;17.80;10.50;;;;;;;0.00;100.00;59042.03;10269383;28;20084;-71
2023/04/04 18:10:57;;;;;;;19.95;11.13;;;;;;;0.00;100.00;59042.03;10254768;28;20132;-71
2023/04/04 18:15:58;;;;;;;16.98;9.80;;;;;;;0.00;100.00;59042.03;10284637;28;20512;-71
2023/04/04 18:21:00;;;;;;;20.90;11.65;;;;;;;0.00;100.00;59042.03;10280808;28;20055;-71
2023/04/04 18:26:01;;;;;;;19.77;10.10;;;;;;;0.00;100.00;59042.03;10281962;28;20037;-73
2023/04/04 18:31:01;;;;;;;24.05;11.93;;;;;;;0.00;100.00;59042.03;10279162;28;20046;-73
2023/04/04 18:36:02;;;;;;;16.20;9.43;;;;;;;0.00;100.00;59042.03;10284771;28;20092;-72
2023/04/04 18:41:04;;;;;;;19.50;12.57;;;;;;;0.00;100.00;59042.03;10280878;28;20345;-72
2023/04/04 18:46:05;;;;;;;17.90;10.02;;;;;;;0.00;100.00;59042.03;10264838;28;20472;-70
2023/04/04 18:51:06;;;;;;;21.20;10.90;;;;;;;0.00;100.00;59042.03;10282350;28;20056;-71
2023/04/04 18:56:07;;;;;;;18.35;11.50;;;;;;;0.00;100.00;59042.03;10282832;28;20039;-71
2023/04/04 19:01:07;;;;;;;21.60;11.50;;;;;;;0.00;100.00;59042.03;10291563;28;20089;-71
2023/04/04 19:06:11;;;;;;;18.52;10.15;;;;;;;0.00;100.00;59042.03;10288608;28;20420;-72
2023/04/04 19:11:12;;;;;;;22.60;11.68;;;;;;;0.00;100.00;59042.03;10290800;28;20079;-81
2023/04/04 19:16:12;;;;;;;19.85;11.02;;;;;;;0.00;100.00;59042.03;10278102;28;20042;-76
2023/04/04 19:21:12;;;;;;;16.63;10.30;;;;;;;0.00;100.00;59042.03;10290848;28;20049;-68
2023/04/04 19:26:13;;;;;;;20.40;10.50;;;;;;;0.00;100.00;59042.03;10291937;28;20289;-77
2023/04/04 19:31:21;;;;;;;19.67;9.33;;;;;;;0.00;100.00;59042.03;10291656;28;20072;-76
2023/04/04 19:36:23;;;;;;;17.27;9.48;;;;;;;0.00;100.00;59042.03;10289627;28;20090;-74
2023/04/04 19:41:35;;;;;;;16.00;8.90;;;;;;;0.00;100.00;59042.03;10288927;28;20482;-74
2023/04/04 19:46:36;;;;;;;22.88;11.32;;;;;;;0.00;100.00;59042.03;10287476;28;20026;-73
2023/04/04 19:51:54;;;;;;;21.88;11.30;;;;;;;0.00;100.00;59042.03;10276052;28;20034;-74
2023/04/04 19:57:05;;;;;;;14.35;9.02;;;;;;;0.00;100.00;59042.03;10270499;28;20551;-78
2023/04/04 20:02:14;;;;;;;24.40;12.30;;;;;;;0.00;100.00;59042.03;10286603;28;20156;-76
2023/04/04 20:07:14;;;;;;;15.88;9.80;;;;;;;0.00;100.00;59042.03;10288382;28;20092;-75
2023/04/04 20:12:17;;;;;;;17.15;10.77;;;;;;;0.00;100.00;59042.03;10290053;28;20800;-66
2023/04/04 20:17:18;;;;;;;21.48;11.18;;;;;;;0.00;100.00;59042.03;10300273;28;20093;-66
2023/04/04 20:22:18;;;;;;;22.23;10.88;;;;;;;0.00;100.00;59042.03;10300121;28;20026;-65
2023/04/04 20:27:26;;;;;;;19.10;10.27;;;;;;;0.00;100.00;59042.03;10298835;28;20022;-65
2023/04/04 20:32:26;;;;;;;;;;;;;;;0.00;100.00;59042.03;10305297;28;20794;-66
2023/04/04 20:37:27;;;;;;;18.08;9.23;;;;;;;0.00;100.00;59042.03;10293131;28;19918;-66
2023/04/04 20:42:27;;;;;;;16.77;9.95;;;;;;;0.00;100.00;59042.03;10303083;28;20477;-66
2023/04/04 20:47:41;;;;;;;18.23;9.27;;;;;;;0.00;100.00;59042.03;10300154;28;20413;-66
2023/04/04 20:52:49;;;;;;;16.88;10.10;;;;;;;0.00;100.00;59042.03;10280885;28;20058;-66
2023/04/04 20:57:51;;;;;;;;;;;;;;;0.00;100.00;59042.03;10297793;28;20363;-67
2023/04/04 21:02:52;;;;;;;19.25;10.13;;;;;;;0.00;100.00;59042.03;10299288;28;20307;-66
2023/04/04 21:07:52;;;;;;;19.73;10.13;;;;;;;0.00;100.00;59042.03;10301001;28;20036;-64
2023/04/04 21:12:55;;;;;;;15.07;9.00;;;;;;;0.00;100.00;59042.03;10300014;28;20038;-64
2023/04/04 21:17:59;;;;;;;17.55;8.68;;;;;;;0.00;100.00;59042.03;10299801;28;20030;-66
2023/04/04 21:22:59;;;;;;;20.77;8.25;;;;;;;0.00;100.00;59042.03;10299709;28;20530;-65
2023/04/04 21:28:00;;;;;;;15.50;8.80;;;;;;;0.00;100.00;59042.03;10295815;28;20027;-66
2023/04/04 21:33:00;;;;;;;11.73;7.47;;;;;;;0.00;100.00;59042.03;10296425;28;20058;-66
2023/04/04 21:38:00;;;;;;;18.27;10.20;;;;;;;0.00;100.00;59042.03;10300158;28;20281;-64
2023/04/04 21:43:01;;;;;;;18.50;10.87;;;;;;;0.00;100.00;59042.03;10299442;28;20377;-64
2023/04/04 21:48:01;;;;;;;19.58;10.85;;;;;;;0.00;100.00;59042.03;10299027;28;20401;-65
2023/04/04 21:53:01;;;;;;;18.85;9.30;;;;;;;0.00;100.00;59042.03;10299528;28;20535;-65
2023/04/04 21:58:02;;;;;;;14.57;8.13;;;;;;;0.00;100.00;59042.03;10298852;28;20373;-65
2023/04/04 22:03:02;;;;;;;16.67;8.40;;;;;;;0.00;100.00;59042.03;10298827;28;20402;-65
2023/04/04 22:08:03;;;;;;;15.45;8.05;;;;;;;0.00;100.00;59042.03;10298044;28;20043;-65
2023/04/04 22:13:03;;;;;;;15.98;9.48;;;;;;;0.00;100.00;59042.03;10292938;28;20038;-64
2023/04/04 22:18:04;;;;;;;16.67;9.50;;;;;;;0.00;100.00;59042.03;10297968;28;20425;-65
2023/04/04 22:23:06;;;;;;;21.52;10.73;;;;;;;0.00;100.00;59042.03;10298390;28;20698;-65
2023/04/04 22:28:07;;;;;;;15.88;8.90;;;;;;;0.00;100.00;59042.03;10297776;28;20137;-66
2023/04/04 22:33:08;;;;;;;12.23;7.10;;;;;;;0.00;100.00;59042.03;10284959;28;20137;-66
2023/04/04 22:38:08;;;;;;;15.55;8.55;;;;;;;0.00;100.00;59042.03;10298910;28;20034;-64
2023/04/04 22:43:09;;;;;;;26.23;10.52;;;;;;;0.00;100.00;59042.03;10280550;28;20019;-65
2023/04/04 22:48:09;;;;;;;18.90;10.13;;;;;;;0.00;100.00;59042.03;10291505;28;20038;-65
2023/04/04 22:53:11;;;;;;;18.83;9.30;;;;;;;0.00;100.00;59042.03;10289770;28;20026;-66
2023/04/04 22:58:12;;;;;;;18.02;9.57;;;;;;;0.00;100.00;59042.03;10297699;28;20401;-65
2023/04/04 23:03:12;;;;;;;18.27;9.87;;;;;;;0.00;100.00;59042.03;10298183;28;20037;-65
2023/04/04 23:08:13;;;;;;;18.45;10.50;;;;;;;0.00;100.00;59042.03;10296301;28;20150;-64
2023/04/04 23:13:13;;;;;;;19.60;9.07;;;;;;;0.00;100.00;59042.03;10296831;28;20042;-64
2023/04/04 23:18:13;;;;;;;16.52;9.75;;;;;;;0.00;100.00;59042.03;10297520;28;20334;-65